sensor_id;sensor_type;location;lat;lon;timestamp;P1;durP1;ratioP1;P2;durP2;ratioP2
32611;SDS011;19030;49.478;8.986;2024-01-30T00:01:51;13.00;;;6.47;;
32611;SDS011;19030;49.478;8.986;2024-01-30T00:03:52;11.02;;;6.43;;
32611;SDS011;19030;49.478;8.986;2024-01-30T00:05:53;11.30;;;6.13;;
32611;SDS011;19030;49.478;8.986;2024-01-30T00:07:53;10.95;;;6.07;;
32611;SDS011;19030;49.478;8.986;2024-01-30T00:09:54;13.00;;;6.57;;
32611;SDS011;19030;49.478;8.986;2024-01-30T00:11:55;10.75;;;6.45;;
32611;SDS011;19030;49.478;8.986;2024-01-30T00:13:56;10.02;;;5.40;;
32611;SDS011;19030;49.478;8.986;2024-01-30T00:15:57;11.10;;;6.03;;
32611;SDS011;19030;49.478;8.986;2024-01-30T00:17:58;12.18;;;6.03;;
32611;SDS011;19030;49.478;8.986;2024-01-30T00:19:58;9.25;;;5.50;;
32611;SDS011;19030;49.478;8.986;2024-01-30T00:21:59;11.15;;;6.20;;
32611;SDS011;19030;49.478;8.986;2024-01-30T00:23:59;12.68;;;6.38;;
32611;SDS011;19030;49.478;8.986;2024-01-30T00:26:00;11.98;;;5.95;;
32611;SDS011;19030;49.478;8.986;2024-01-30T00:28:00;11.00;;;5.63;;
32611;SDS011;19030;49.478;8.986;2024-01-30T00:30:01;12.40;;;6.20;;
32611;SDS011;19030;49.478;8.986;2024-01-30T00:32:02;11.88;;;6.07;;
32611;SDS011;19030;49.478;8.986;2024-01-30T00:34:03;10.10;;;5.68;;
32611;SDS011;19030;49.478;8.986;2024-01-30T00:36:03;10.73;;;5.47;;
32611;SDS011;19030;49.478;8.986;2024-01-30T00:38:04;10.10;;;5.63;;
32611;SDS011;19030;49.478;8.986;2024-01-30T00:40:08;12.00;;;6.28;;
32611;SDS011;19030;49.478;8.986;2024-01-30T00:42:10;10.73;;;6.22;;
32611;SDS011;19030;49.478;8.986;2024-01-30T00:44:10;14.27;;;6.50;;
32611;SDS011;19030;49.478;8.986;2024-01-30T00:46:11;9.30;;;5.35;;
32611;SDS011;19030;49.478;8.986;2024-01-30T00:48:12;10.48;;;5.90;;
32611;SDS011;19030;49.478;8.986;2024-01-30T00:50:12;10.95;;;6.60;;
32611;SDS011;19030;49.478;8.986;2024-01-30T00:52:13;10.45;;;6.00;;
32611;SDS011;19030;49.478;8.986;2024-01-30T00:54:13;11.48;;;6.25;;
32611;SDS011;19030;49.478;8.986;2024-01-30T00:56:14;10.73;;;6.20;;
32611;SDS011;19030;49.478;8.986;2024-01-30T00:58:18;11.60;;;6.72;;
32611;SDS011;19030;49.478;8.986;2024-01-30T01:00:19;11.13;;;6.32;;
32611;SDS011;19030;49.478;8.986;2024-01-30T01:02:21;14.98;;;6.63;;
32611;SDS011;19030;49.478;8.986;2024-01-30T01:04:21;10.40;;;6.45;;
32611;SDS011;19030;49.478;8.986;2024-01-30T01:06:22;12.00;;;6.88;;
32611;SDS011;19030;49.478;8.986;2024-01-30T01:08:22;14.07;;;6.55;;
32611;SDS011;19030;49.478;8.986;2024-01-30T01:10:23;13.02;;;6.47;;
32611;SDS011;19030;49.478;8.986;2024-01-30T01:12:23;10.23;;;6.25;;
32611;SDS011;19030;49.478;8.986;2024-01-30T01:14:24;10.85;;;6.30;;
32611;SDS011;19030;49.478;8.986;2024-01-30T01:16:25;9.57;;;5.70;;
32611;SDS011;19030;49.478;8.986;2024-01-30T01:18:26;13.18;;;7.28;;
32611;SDS011;19030;49.478;8.986;2024-01-30T01:20:27;11.93;;;6.47;;
32611;SDS011;19030;49.478;8.986;2024-01-30T01:22:27;10.27;;;6.40;;
32611;SDS011;19030;49.478;8.986;2024-01-30T01:24:28;11.30;;;6.53;;
32611;SDS011;19030;49.478;8.986;2024-01-30T01:26:30;10.80;;;5.97;;
32611;SDS011;19030;49.478;8.986;2024-01-30T01:28:31;9.05;;;5.82;;
32611;SDS011;19030;49.478;8.986;2024-01-30T01:30:31;9.80;;;5.75;;
32611;SDS011;19030;49.478;8.986;2024-01-30T01:32:32;9.85;;;5.63;;
32611;SDS011;19030;49.478;8.986;2024-01-30T01:34:33;11.23;;;5.82;;
32611;SDS011;19030;49.478;8.986;2024-01-30T01:36:33;9.75;;;5.75;;
32611;SDS011;19030;49.478;8.986;2024-01-30T01:38:34;10.65;;;6.38;;
32611;SDS011;19030;49.478;8.986;2024-01-30T01:40:34;10.57;;;6.30;;
32611;SDS011;19030;49.478;8.986;2024-01-30T01:42:35;13.20;;;6.82;;
32611;SDS011;19030;49.478;8.986;2024-01-30T01:44:36;13.88;;;6.80;;
32611;SDS011;19030;49.478;8.986;2024-01-30T01:46:36;10.80;;;6.22;;
32611;SDS011;19030;49.478;8.986;2024-01-30T01:48:37;9.07;;;5.63;;
32611;SDS011;19030;49.478;8.986;2024-01-30T01:50:40;10.40;;;6.10;;
32611;SDS011;19030;49.478;8.986;2024-01-30T01:52:42;10.00;;;5.40;;
32611;SDS011;19030;49.478;8.986;2024-01-30T01:54:42;11.15;;;6.53;;
32611;SDS011;19030;49.478;8.986;2024-01-30T01:56:43;11.85;;;7.20;;
32611;SDS011;19030;49.478;8.986;2024-01-30T01:58:44;11.60;;;6.82;;
32611;SDS011;19030;49.478;8.986;2024-01-30T02:00:47;12.40;;;6.43;;
32611;SDS011;19030;49.478;8.986;2024-01-30T02:02:48;12.15;;;6.75;;
32611;SDS011;19030;49.478;8.986;2024-01-30T02:04:50;15.80;;;7.80;;
32611;SDS011;19030;49.478;8.986;2024-01-30T02:06:51;11.88;;;7.47;;
32611;SDS011;19030;49.478;8.986;2024-01-30T02:08:52;11.02;;;6.70;;
32611;SDS011;19030;49.478;8.986;2024-01-30T02:10:52;11.57;;;6.57;;
32611;SDS011;19030;49.478;8.986;2024-01-30T02:12:53;12.48;;;7.03;;
32611;SDS011;19030;49.478;8.986;2024-01-30T02:14:53;12.57;;;6.30;;
32611;SDS011;19030;49.478;8.986;2024-01-30T02:16:55;9.48;;;5.75;;
32611;SDS011;19030;49.478;8.986;2024-01-30T02:18:55;11.50;;;6.05;;
32611;SDS011;19030;49.478;8.986;2024-01-30T02:20:56;10.60;;;6.20;;
32611;SDS011;19030;49.478;8.986;2024-01-30T02:23:01;10.38;;;6.20;;
32611;SDS011;19030;49.478;8.986;2024-01-30T02:25:02;9.98;;;6.30;;
32611;SDS011;19030;49.478;8.986;2024-01-30T02:27:03;10.32;;;6.00;;
32611;SDS011;19030;49.478;8.986;2024-01-30T02:29:04;9.07;;;5.57;;
32611;SDS011;19030;49.478;8.986;2024-01-30T02:31:05;11.50;;;6.15;;
32611;SDS011;19030;49.478;8.986;2024-01-30T02:33:05;10.77;;;5.97;;
32611;SDS011;19030;49.478;8.986;2024-01-30T02:35:06;11.55;;;6.55;;
32611;SDS011;19030;49.478;8.986;2024-01-30T02:37:06;10.15;;;5.68;;
32611;SDS011;19030;49.478;8.986;2024-01-30T02:39:07;8.77;;;5.30;;
32611;SDS011;19030;49.478;8.986;2024-01-30T02:41:08;10.15;;;5.35;;
32611;SDS011;19030;49.478;8.986;2024-01-30T02:43:08;11.27;;;6.13;;
32611;SDS011;19030;49.478;8.986;2024-01-30T02:45:09;11.70;;;5.72;;
32611;SDS011;19030;49.478;8.986;2024-01-30T02:47:10;11.00;;;5.78;;
32611;SDS011;19030;49.478;8.986;2024-01-30T02:49:10;10.70;;;5.68;;
32611;SDS011;19030;49.478;8.986;2024-01-30T02:51:11;10.60;;;5.72;;
32611;SDS011;19030;49.478;8.986;2024-01-30T02:53:11;10.57;;;5.55;;
32611;SDS011;19030;49.478;8.986;2024-01-30T02:55:12;9.40;;;5.53;;
32611;SDS011;19030;49.478;8.986;2024-01-30T02:57:13;11.27;;;5.80;;
32611;SDS011;19030;49.478;8.986;2024-01-30T02:59:13;9.50;;;5.80;;
32611;SDS011;19030;49.478;8.986;2024-01-30T03:01:14;11.10;;;5.93;;
32611;SDS011;19030;49.478;8.986;2024-01-30T03:03:14;9.73;;;5.68;;
32611;SDS011;19030;49.478;8.986;2024-01-30T03:05:15;10.45;;;5.57;;
32611;SDS011;19030;49.478;8.986;2024-01-30T03:07:16;11.30;;;5.50;;
32611;SDS011;19030;49.478;8.986;2024-01-30T03:09:16;9.98;;;5.60;;
32611;SDS011;19030;49.478;8.986;2024-01-30T03:11:20;11.40;;;5.65;;
32611;SDS011;19030;49.478;8.986;2024-01-30T03:13:21;11.27;;;5.97;;
32611;SDS011;19030;49.478;8.986;2024-01-30T03:15:23;13.30;;;6.28;;
32611;SDS011;19030;49.478;8.986;2024-01-30T03:17:24;10.00;;;5.50;;
32611;SDS011;19030;49.478;8.986;2024-01-30T03:19:24;12.70;;;5.65;;
32611;SDS011;19030;49.478;8.986;2024-01-30T03:21:25;13.65;;;6.60;;
32611;SDS011;19030;49.478;8.986;2024-01-30T03:23:25;11.35;;;5.78;;
32611;SDS011;19030;49.478;8.986;2024-01-30T03:25:26;10.93;;;6.05;;
32611;SDS011;19030;49.478;8.986;2024-01-30T03:27:26;14.07;;;5.50;;
32611;SDS011;19030;49.478;8.986;2024-01-30T03:29:27;10.13;;;5.35;;
32611;SDS011;19030;49.478;8.986;2024-01-30T03:31:27;10.07;;;5.68;;
32611;SDS011;19030;49.478;8.986;2024-01-30T03:33:28;13.50;;;5.68;;
32611;SDS011;19030;49.478;8.986;2024-01-30T03:35:28;9.32;;;5.60;;
32611;SDS011;19030;49.478;8.986;2024-01-30T03:37:29;9.57;;;5.82;;
32611;SDS011;19030;49.478;8.986;2024-01-30T03:39:30;11.80;;;5.85;;
32611;SDS011;19030;49.478;8.986;2024-01-30T03:41:30;9.32;;;5.80;;
32611;SDS011;19030;49.478;8.986;2024-01-30T03:43:31;10.00;;;5.68;;
32611;SDS011;19030;49.478;8.986;2024-01-30T03:45:31;10.15;;;5.93;;
32611;SDS011;19030;49.478;8.986;2024-01-30T03:47:32;10.85;;;5.63;;
32611;SDS011;19030;49.478;8.986;2024-01-30T03:49:32;10.23;;;5.93;;
32611;SDS011;19030;49.478;8.986;2024-01-30T03:51:33;11.57;;;6.20;;
32611;SDS011;19030;49.478;8.986;2024-01-30T03:53:33;11.15;;;5.25;;
32611;SDS011;19030;49.478;8.986;2024-01-30T03:55:34;10.98;;;6.05;;
32611;SDS011;19030;49.478;8.986;2024-01-30T03:57:35;11.68;;;5.78;;
32611;SDS011;19030;49.478;8.986;2024-01-30T03:59:35;9.15;;;5.65;;
32611;SDS011;19030;49.478;8.986;2024-01-30T04:01:36;9.35;;;5.53;;
32611;SDS011;19030;49.478;8.986;2024-01-30T04:03:36;11.32;;;5.72;;
32611;SDS011;19030;49.478;8.986;2024-01-30T04:05:37;12.88;;;8.52;;
32611;SDS011;19030;49.478;8.986;2024-01-30T04:07:37;12.40;;;6.93;;
32611;SDS011;19030;49.478;8.986;2024-01-30T04:09:38;11.75;;;5.70;;
32611;SDS011;19030;49.478;8.986;2024-01-30T04:11:39;10.68;;;5.60;;
32611;SDS011;19030;49.478;8.986;2024-01-30T04:13:40;10.32;;;5.55;;
32611;SDS011;19030;49.478;8.986;2024-01-30T04:15:43;11.00;;;5.45;;
32611;SDS011;19030;49.478;8.986;2024-01-30T04:17:44;12.70;;;6.30;;
32611;SDS011;19030;49.478;8.986;2024-01-30T04:19:44;9.75;;;5.60;;
32611;SDS011;19030;49.478;8.986;2024-01-30T04:21:45;13.27;;;5.90;;
32611;SDS011;19030;49.478;8.986;2024-01-30T04:23:45;11.18;;;6.15;;
32611;SDS011;19030;49.478;8.986;2024-01-30T04:25:46;9.13;;;5.30;;
32611;SDS011;19030;49.478;8.986;2024-01-30T04:27:46;11.20;;;5.65;;
32611;SDS011;19030;49.478;8.986;2024-01-30T04:29:47;10.18;;;5.50;;
32611;SDS011;19030;49.478;8.986;2024-01-30T04:31:48;12.95;;;5.97;;
32611;SDS011;19030;49.478;8.986;2024-01-30T04:33:48;10.02;;;5.60;;
32611;SDS011;19030;49.478;8.986;2024-01-30T04:35:49;9.27;;;5.50;;
32611;SDS011;19030;49.478;8.986;2024-01-30T04:37:49;11.10;;;5.80;;
32611;SDS011;19030;49.478;8.986;2024-01-30T04:39:51;10.45;;;5.75;;
32611;SDS011;19030;49.478;8.986;2024-01-30T04:41:52;8.80;;;5.40;;
32611;SDS011;19030;49.478;8.986;2024-01-30T04:43:52;13.48;;;5.93;;
32611;SDS011;19030;49.478;8.986;2024-01-30T04:45:53;9.25;;;5.60;;
32611;SDS011;19030;49.478;8.986;2024-01-30T04:47:53;10.18;;;5.53;;
32611;SDS011;19030;49.478;8.986;2024-01-30T04:49:54;11.63;;;6.18;;
32611;SDS011;19030;49.478;8.986;2024-01-30T04:51:54;9.60;;;5.40;;
32611;SDS011;19030;49.478;8.986;2024-01-30T04:53:56;12.27;;;5.05;;
32611;SDS011;19030;49.478;8.986;2024-01-30T04:55:56;9.65;;;5.63;;
32611;SDS011;19030;49.478;8.986;2024-01-30T04:57:57;11.73;;;5.30;;
32611;SDS011;19030;49.478;8.986;2024-01-30T04:59:58;9.98;;;5.47;;
32611;SDS011;19030;49.478;8.986;2024-01-30T05:01:58;9.45;;;5.10;;
32611;SDS011;19030;49.478;8.986;2024-01-30T05:03:59;10.82;;;5.75;;
32611;SDS011;19030;49.478;8.986;2024-01-30T05:06:00;9.25;;;5.38;;
32611;SDS011;19030;49.478;8.986;2024-01-30T05:08:00;9.25;;;5.70;;
32611;SDS011;19030;49.478;8.986;2024-01-30T05:10:01;8.80;;;5.63;;
32611;SDS011;19030;49.478;8.986;2024-01-30T05:12:02;9.75;;;5.18;;
32611;SDS011;19030;49.478;8.986;2024-01-30T05:14:02;10.95;;;5.78;;
32611;SDS011;19030;49.478;8.986;2024-01-30T05:16:03;11.50;;;5.88;;
32611;SDS011;19030;49.478;8.986;2024-01-30T05:18:04;13.77;;;7.32;;
32611;SDS011;19030;49.478;8.986;2024-01-30T05:20:05;27.02;;;17.38;;
32611;SDS011;19030;49.478;8.986;2024-01-30T05:22:06;22.25;;;10.82;;
32611;SDS011;19030;49.478;8.986;2024-01-30T05:24:07;19.55;;;10.02;;
32611;SDS011;19030;49.478;8.986;2024-01-30T05:26:09;12.18;;;6.63;;
32611;SDS011;19030;49.478;8.986;2024-01-30T05:28:10;11.65;;;5.82;;
32611;SDS011;19030;49.478;8.986;2024-01-30T05:30:10;8.75;;;5.35;;
32611;SDS011;19030;49.478;8.986;2024-01-30T05:32:11;9.15;;;5.38;;
32611;SDS011;19030;49.478;8.986;2024-01-30T05:34:12;11.30;;;5.65;;
32611;SDS011;19030;49.478;8.986;2024-01-30T05:36:12;11.40;;;6.18;;
32611;SDS011;19030;49.478;8.986;2024-01-30T05:38:13;9.52;;;5.47;;
32611;SDS011;19030;49.478;8.986;2024-01-30T05:40:15;9.20;;;5.20;;
32611;SDS011;19030;49.478;8.986;2024-01-30T05:42:16;10.13;;;5.65;;
32611;SDS011;19030;49.478;8.986;2024-01-30T05:44:16;11.95;;;5.78;;
32611;SDS011;19030;49.478;8.986;2024-01-30T05:46:17;9.05;;;5.18;;
32611;SDS011;19030;49.478;8.986;2024-01-30T05:48:17;9.18;;;5.57;;
32611;SDS011;19030;49.478;8.986;2024-01-30T05:50:19;10.70;;;5.97;;
32611;SDS011;19030;49.478;8.986;2024-01-30T05:52:19;9.15;;;5.45;;
32611;SDS011;19030;49.478;8.986;2024-01-30T05:54:20;10.15;;;5.82;;
32611;SDS011;19030;49.478;8.986;2024-01-30T05:56:21;12.35;;;6.30;;
32611;SDS011;19030;49.478;8.986;2024-01-30T05:58:22;10.35;;;5.88;;
32611;SDS011;19030;49.478;8.986;2024-01-30T06:00:22;9.60;;;5.70;;
32611;SDS011;19030;49.478;8.986;2024-01-30T06:02:23;9.10;;;5.50;;
32611;SDS011;19030;49.478;8.986;2024-01-30T06:04:24;10.77;;;5.63;;
32611;SDS011;19030;49.478;8.986;2024-01-30T06:06:24;8.15;;;5.13;;
32611;SDS011;19030;49.478;8.986;2024-01-30T06:08:25;8.65;;;5.43;;
32611;SDS011;19030;49.478;8.986;2024-01-30T06:10:25;9.90;;;5.88;;
32611;SDS011;19030;49.478;8.986;2024-01-30T06:12:26;10.50;;;6.03;;
32611;SDS011;19030;49.478;8.986;2024-01-30T06:14:28;9.80;;;4.85;;
32611;SDS011;19030;49.478;8.986;2024-01-30T06:16:28;9.30;;;5.15;;
32611;SDS011;19030;49.478;8.986;2024-01-30T06:18:29;10.25;;;5.90;;
32611;SDS011;19030;49.478;8.986;2024-01-30T06:20:31;17.60;;;5.43;;
32611;SDS011;19030;49.478;8.986;2024-01-30T06:22:32;9.00;;;5.60;;
32611;SDS011;19030;49.478;8.986;2024-01-30T06:24:32;10.05;;;5.25;;
32611;SDS011;19030;49.478;8.986;2024-01-30T06:26:34;10.10;;;6.05;;
32611;SDS011;19030;49.478;8.986;2024-01-30T06:28:34;9.88;;;5.60;;
32611;SDS011;19030;49.478;8.986;2024-01-30T06:30:35;10.00;;;6.22;;
32611;SDS011;19030;49.478;8.986;2024-01-30T06:32:35;9.75;;;5.93;;
32611;SDS011;19030;49.478;8.986;2024-01-30T06:34:36;10.10;;;5.93;;
32611;SDS011;19030;49.478;8.986;2024-01-30T06:36:38;9.30;;;5.70;;
32611;SDS011;19030;49.478;8.986;2024-01-30T06:38:39;12.85;;;6.35;;
32611;SDS011;19030;49.478;8.986;2024-01-30T06:40:40;9.07;;;5.75;;
32611;SDS011;19030;49.478;8.986;2024-01-30T06:42:41;12.50;;;5.97;;
32611;SDS011;19030;49.478;8.986;2024-01-30T06:44:42;12.23;;;5.72;;
32611;SDS011;19030;49.478;8.986;2024-01-30T06:46:42;10.40;;;5.30;;
32611;SDS011;19030;49.478;8.986;2024-01-30T06:48:43;9.93;;;5.68;;
32611;SDS011;19030;49.478;8.986;2024-01-30T06:50:44;10.00;;;5.72;;
32611;SDS011;19030;49.478;8.986;2024-01-30T06:52:45;11.20;;;5.30;;
32611;SDS011;19030;49.478;8.986;2024-01-30T06:54:46;10.07;;;6.10;;
32611;SDS011;19030;49.478;8.986;2024-01-30T06:56:46;11.35;;;5.57;;
32611;SDS011;19030;49.478;8.986;2024-01-30T06:58:50;10.23;;;5.65;;
32611;SDS011;19030;49.478;8.986;2024-01-30T07:00:51;9.68;;;5.93;;
32611;SDS011;19030;49.478;8.986;2024-01-30T07:02:51;10.20;;;6.25;;
32611;SDS011;19030;49.478;8.986;2024-01-30T07:04:52;11.00;;;5.65;;
32611;SDS011;19030;49.478;8.986;2024-01-30T07:06:52;11.48;;;6.00;;
32611;SDS011;19030;49.478;8.986;2024-01-30T07:08:53;11.82;;;6.07;;
32611;SDS011;19030;49.478;8.986;2024-01-30T07:10:54;13.70;;;6.50;;
32611;SDS011;19030;49.478;8.986;2024-01-30T07:12:55;10.32;;;5.63;;
32611;SDS011;19030;49.478;8.986;2024-01-30T07:14:55;11.02;;;5.30;;
32611;SDS011;19030;49.478;8.986;2024-01-30T07:16:56;11.57;;;6.00;;
32611;SDS011;19030;49.478;8.986;2024-01-30T07:18:57;11.93;;;6.00;;
32611;SDS011;19030;49.478;8.986;2024-01-30T07:20:57;10.27;;;5.25;;
32611;SDS011;19030;49.478;8.986;2024-01-30T07:22:58;11.75;;;5.78;;
32611;SDS011;19030;49.478;8.986;2024-01-30T07:24:59;9.75;;;5.53;;
32611;SDS011;19030;49.478;8.986;2024-01-30T07:27:00;11.75;;;5.57;;
32611;SDS011;19030;49.478;8.986;2024-01-30T07:29:00;10.32;;;5.43;;
32611;SDS011;19030;49.478;8.986;2024-01-30T07:31:01;9.90;;;5.75;;
32611;SDS011;19030;49.478;8.986;2024-01-30T07:33:02;12.32;;;7.13;;
32611;SDS011;19030;49.478;8.986;2024-01-30T07:35:03;11.55;;;6.13;;
32611;SDS011;19030;49.478;8.986;2024-01-30T07:37:03;9.68;;;5.80;;
32611;SDS011;19030;49.478;8.986;2024-01-30T07:39:04;12.23;;;7.13;;
32611;SDS011;19030;49.478;8.986;2024-01-30T07:41:04;11.30;;;6.80;;
32611;SDS011;19030;49.478;8.986;2024-01-30T07:43:05;11.27;;;6.68;;
32611;SDS011;19030;49.478;8.986;2024-01-30T07:45:06;11.75;;;7.47;;
32611;SDS011;19030;49.478;8.986;2024-01-30T07:47:06;12.68;;;7.95;;
32611;SDS011;19030;49.478;8.986;2024-01-30T07:49:07;11.23;;;7.57;;
32611;SDS011;19030;49.478;8.986;2024-01-30T07:51:08;12.00;;;7.53;;
32611;SDS011;19030;49.478;8.986;2024-01-30T07:53:08;15.20;;;9.73;;
32611;SDS011;19030;49.478;8.986;2024-01-30T07:55:09;17.13;;;9.77;;
32611;SDS011;19030;49.478;8.986;2024-01-30T07:57:10;16.33;;;10.15;;
32611;SDS011;19030;49.478;8.986;2024-01-30T07:59:10;13.25;;;8.23;;
32611;SDS011;19030;49.478;8.986;2024-01-30T08:01:11;12.55;;;7.35;;
32611;SDS011;19030;49.478;8.986;2024-01-30T08:03:12;12.27;;;7.65;;
32611;SDS011;19030;49.478;8.986;2024-01-30T08:05:13;22.02;;;12.88;;
32611;SDS011;19030;49.478;8.986;2024-01-30T08:07:15;24.80;;;14.27;;
32611;SDS011;19030;49.478;8.986;2024-01-30T08:09:17;19.58;;;10.48;;
32611;SDS011;19030;49.478;8.986;2024-01-30T08:11:18;14.98;;;7.25;;
32611;SDS011;19030;49.478;8.986;2024-01-30T08:13:19;11.75;;;7.32;;
32611;SDS011;19030;49.478;8.986;2024-01-30T08:15:20;9.65;;;6.40;;
32611;SDS011;19030;49.478;8.986;2024-01-30T08:17:20;13.75;;;6.28;;
32611;SDS011;19030;49.478;8.986;2024-01-30T08:19:21;10.52;;;6.22;;
32611;SDS011;19030;49.478;8.986;2024-01-30T08:21:21;12.45;;;5.97;;
32611;SDS011;19030;49.478;8.986;2024-01-30T08:23:22;11.02;;;6.65;;
32611;SDS011;19030;49.478;8.986;2024-01-30T08:25:23;10.38;;;6.30;;
32611;SDS011;19030;49.478;8.986;2024-01-30T08:27:23;10.45;;;5.47;;
32611;SDS011;19030;49.478;8.986;2024-01-30T08:29:24;27.20;;;13.98;;
32611;SDS011;19030;49.478;8.986;2024-01-30T08:31:25;10.07;;;5.57;;
32611;SDS011;19030;49.478;8.986;2024-01-30T08:33:25;10.38;;;5.65;;
32611;SDS011;19030;49.478;8.986;2024-01-30T08:35:26;10.23;;;5.88;;
32611;SDS011;19030;49.478;8.986;2024-01-30T08:37:26;11.30;;;6.32;;
32611;SDS011;19030;49.478;8.986;2024-01-30T08:39:27;10.25;;;6.05;;
32611;SDS011;19030;49.478;8.986;2024-01-30T08:41:27;12.90;;;8.05;;
32611;SDS011;19030;49.478;8.986;2024-01-30T08:43:28;11.40;;;7.15;;
32611;SDS011;19030;49.478;8.986;2024-01-30T08:45:29;10.27;;;6.50;;
32611;SDS011;19030;49.478;8.986;2024-01-30T08:47:30;11.77;;;7.00;;
32611;SDS011;19030;49.478;8.986;2024-01-30T08:49:31;8.55;;;6.18;;
32611;SDS011;19030;49.478;8.986;2024-01-30T08:51:32;10.30;;;6.38;;
32611;SDS011;19030;49.478;8.986;2024-01-30T08:53:32;9.45;;;6.13;;
32611;SDS011;19030;49.478;8.986;2024-01-30T08:55:33;11.23;;;5.93;;
32611;SDS011;19030;49.478;8.986;2024-01-30T08:57:33;12.15;;;6.45;;
32611;SDS011;19030;49.478;8.986;2024-01-30T08:59:34;11.38;;;6.85;;
32611;SDS011;19030;49.478;8.986;2024-01-30T09:01:34;13.48;;;7.15;;
32611;SDS011;19030;49.478;8.986;2024-01-30T09:03:35;11.88;;;7.30;;
32611;SDS011;19030;49.478;8.986;2024-01-30T09:05:37;13.00;;;7.15;;
32611;SDS011;19030;49.478;8.986;2024-01-30T09:07:38;12.52;;;8.10;;
32611;SDS011;19030;49.478;8.986;2024-01-30T09:09:39;13.60;;;9.32;;
32611;SDS011;19030;49.478;8.986;2024-01-30T09:11:43;13.90;;;7.35;;
32611;SDS011;19030;49.478;8.986;2024-01-30T09:13:43;13.35;;;7.43;;
32611;SDS011;19030;49.478;8.986;2024-01-30T09:15:44;12.10;;;8.23;;
32611;SDS011;19030;49.478;8.986;2024-01-30T09:17:44;13.68;;;7.50;;
32611;SDS011;19030;49.478;8.986;2024-01-30T09:19:45;12.75;;;7.75;;
32611;SDS011;19030;49.478;8.986;2024-01-30T09:21:46;10.65;;;6.82;;
32611;SDS011;19030;49.478;8.986;2024-01-30T09:23:47;11.77;;;6.85;;
32611;SDS011;19030;49.478;8.986;2024-01-30T09:25:47;13.45;;;7.45;;
32611;SDS011;19030;49.478;8.986;2024-01-30T09:27:48;10.30;;;7.10;;
32611;SDS011;19030;49.478;8.986;2024-01-30T09:29:49;10.05;;;7.45;;
32611;SDS011;19030;49.478;8.986;2024-01-30T09:31:49;11.05;;;6.13;;
32611;SDS011;19030;49.478;8.986;2024-01-30T09:33:50;9.52;;;5.80;;
32611;SDS011;19030;49.478;8.986;2024-01-30T09:35:51;9.55;;;5.63;;
32611;SDS011;19030;49.478;8.986;2024-01-30T09:37:51;9.05;;;5.80;;
32611;SDS011;19030;49.478;8.986;2024-01-30T09:39:52;9.38;;;6.05;;
32611;SDS011;19030;49.478;8.986;2024-01-30T09:42:08;11.02;;;6.50;;
32611;SDS011;19030;49.478;8.986;2024-01-30T09:44:20;11.77;;;6.82;;
32611;SDS011;19030;49.478;8.986;2024-01-30T09:46:23;10.15;;;5.53;;
32611;SDS011;19030;49.478;8.986;2024-01-30T09:48:30;11.43;;;5.95;;
32611;SDS011;19030;49.478;8.986;2024-01-30T09:50:32;9.90;;;6.65;;
32611;SDS011;19030;49.478;8.986;2024-01-30T09:52:36;11.07;;;6.45;;
32611;SDS011;19030;49.478;8.986;2024-01-30T09:54:37;13.73;;;6.18;;
32611;SDS011;19030;49.478;8.986;2024-01-30T09:56:38;10.65;;;6.18;;
32611;SDS011;19030;49.478;8.986;2024-01-30T09:58:39;12.82;;;5.85;;
32611;SDS011;19030;49.478;8.986;2024-01-30T10:00:39;8.68;;;5.28;;
32611;SDS011;19030;49.478;8.986;2024-01-30T10:02:40;10.13;;;6.32;;
32611;SDS011;19030;49.478;8.986;2024-01-30T10:04:41;12.20;;;7.05;;
32611;SDS011;19030;49.478;8.986;2024-01-30T10:06:42;11.32;;;6.95;;
32611;SDS011;19030;49.478;8.986;2024-01-30T10:08:43;10.80;;;6.22;;
32611;SDS011;19030;49.478;8.986;2024-01-30T10:10:45;10.15;;;6.57;;
32611;SDS011;19030;49.478;8.986;2024-01-30T10:12:46;11.40;;;6.95;;
32611;SDS011;19030;49.478;8.986;2024-01-30T10:14:47;13.65;;;7.85;;
32611;SDS011;19030;49.478;8.986;2024-01-30T10:16:48;11.85;;;7.18;;
32611;SDS011;19030;49.478;8.986;2024-01-30T10:18:48;11.98;;;6.95;;
32611;SDS011;19030;49.478;8.986;2024-01-30T10:20:49;11.70;;;7.60;;
32611;SDS011;19030;49.478;8.986;2024-01-30T10:22:49;11.63;;;7.22;;
32611;SDS011;19030;49.478;8.986;2024-01-30T10:24:50;12.25;;;6.47;;
32611;SDS011;19030;49.478;8.986;2024-01-30T10:26:50;16.60;;;6.82;;
32611;SDS011;19030;49.478;8.986;2024-01-30T10:28:51;12.02;;;6.80;;
32611;SDS011;19030;49.478;8.986;2024-01-30T10:30:59;14.27;;;7.40;;
32611;SDS011;19030;49.478;8.986;2024-01-30T10:33:00;14.02;;;7.28;;
32611;SDS011;19030;49.478;8.986;2024-01-30T10:35:00;11.18;;;6.68;;
32611;SDS011;19030;49.478;8.986;2024-01-30T10:37:08;12.43;;;7.05;;
32611;SDS011;19030;49.478;8.986;2024-01-30T10:39:16;10.65;;;6.25;;
32611;SDS011;19030;49.478;8.986;2024-01-30T10:41:19;11.90;;;7.40;;
32611;SDS011;19030;49.478;8.986;2024-01-30T10:43:30;13.25;;;8.45;;
32611;SDS011;19030;49.478;8.986;2024-01-30T10:45:35;17.65;;;8.45;;
32611;SDS011;19030;49.478;8.986;2024-01-30T10:47:48;11.60;;;7.63;;
32611;SDS011;19030;49.478;8.986;2024-01-30T10:49:50;13.85;;;8.55;;
32611;SDS011;19030;49.478;8.986;2024-01-30T10:51:52;24.05;;;10.93;;
32611;SDS011;19030;49.478;8.986;2024-01-30T10:53:53;20.48;;;10.07;;
32611;SDS011;19030;49.478;8.986;2024-01-30T10:55:56;18.00;;;9.70;;
32611;SDS011;19030;49.478;8.986;2024-01-30T10:57:57;15.00;;;9.07;;
32611;SDS011;19030;49.478;8.986;2024-01-30T10:59:59;29.08;;;11.82;;
32611;SDS011;19030;49.478;8.986;2024-01-30T11:02:01;16.02;;;9.68;;
32611;SDS011;19030;49.478;8.986;2024-01-30T11:04:02;15.75;;;8.27;;
32611;SDS011;19030;49.478;8.986;2024-01-30T11:06:03;15.02;;;9.32;;
32611;SDS011;19030;49.478;8.986;2024-01-30T11:08:10;15.07;;;8.38;;
32611;SDS011;19030;49.478;8.986;2024-01-30T11:10:12;13.68;;;7.90;;
32611;SDS011;19030;49.478;8.986;2024-01-30T11:12:15;15.57;;;8.43;;
32611;SDS011;19030;49.478;8.986;2024-01-30T11:14:15;16.38;;;9.43;;
32611;SDS011;19030;49.478;8.986;2024-01-30T11:16:16;15.50;;;9.07;;
32611;SDS011;19030;49.478;8.986;2024-01-30T11:18:23;14.13;;;9.00;;
32611;SDS011;19030;49.478;8.986;2024-01-30T11:20:25;14.77;;;9.77;;
32611;SDS011;19030;49.478;8.986;2024-01-30T11:22:31;13.65;;;8.82;;
32611;SDS011;19030;49.478;8.986;2024-01-30T11:24:36;15.07;;;9.98;;
32611;SDS011;19030;49.478;8.986;2024-01-30T11:26:42;17.77;;;10.30;;
32611;SDS011;19030;49.478;8.986;2024-01-30T11:28:42;16.88;;;9.55;;
32611;SDS011;19030;49.478;8.986;2024-01-30T11:31:02;15.98;;;9.30;;
32611;SDS011;19030;49.478;8.986;2024-01-30T11:33:07;18.88;;;11.18;;
32611;SDS011;19030;49.478;8.986;2024-01-30T11:35:08;22.52;;;11.95;;
32611;SDS011;19030;49.478;8.986;2024-01-30T11:37:11;21.58;;;12.15;;
32611;SDS011;19030;49.478;8.986;2024-01-30T11:39:13;18.50;;;10.98;;
32611;SDS011;19030;49.478;8.986;2024-01-30T11:41:17;19.48;;;11.85;;
32611;SDS011;19030;49.478;8.986;2024-01-30T11:43:18;17.48;;;11.40;;
32611;SDS011;19030;49.478;8.986;2024-01-30T11:45:19;19.42;;;12.75;;
32611;SDS011;19030;49.478;8.986;2024-01-30T11:47:19;19.98;;;11.68;;
32611;SDS011;19030;49.478;8.986;2024-01-30T11:49:20;18.98;;;12.48;;
32611;SDS011;19030;49.478;8.986;2024-01-30T11:51:21;20.92;;;13.05;;
32611;SDS011;19030;49.478;8.986;2024-01-30T11:53:22;19.90;;;12.60;;
32611;SDS011;19030;49.478;8.986;2024-01-30T11:55:23;17.45;;;12.93;;
32611;SDS011;19030;49.478;8.986;2024-01-30T11:57:24;20.38;;;13.00;;
32611;SDS011;19030;49.478;8.986;2024-01-30T11:59:26;20.85;;;13.07;;
32611;SDS011;19030;49.478;8.986;2024-01-30T12:01:26;23.42;;;15.30;;